createdAt,value
2019-03-20T00:00:15.645Z,6.66
2019-03-20T00:01:15.639Z,6.65
2019-03-20T00:02:15.624Z,6.65
2019-03-20T00:03:15.614Z,6.63
2019-03-20T00:04:15.614Z,6.64
2019-03-20T00:05:15.593Z,6.63
2019-03-20T00:06:15.583Z,6.62
2019-03-20T00:07:15.573Z,6.62
2019-03-20T00:08:15.565Z,6.59
2019-03-20T00:09:15.551Z,6.59
2019-03-20T00:10:15.555Z,6.56
2019-03-20T00:11:15.531Z,6.57
2019-03-20T00:12:15.520Z,6.54
2019-03-20T00:13:15.509Z,6.53
2019-03-20T00:14:15.499Z,6.52
2019-03-20T00:15:15.488Z,6.51
2019-03-20T00:16:15.488Z,6.50
2019-03-20T00:17:15.467Z,6.49
2019-03-20T00:18:15.460Z,6.48
2019-03-20T00:19:15.448Z,6.48
2019-03-20T00:20:15.435Z,6.46
2019-03-20T00:21:15.425Z,6.47
2019-03-20T00:22:15.430Z,6.45
2019-03-20T00:23:15.405Z,6.44
2019-03-20T00:24:15.396Z,6.44
2019-03-20T00:25:15.388Z,6.42
2019-03-20T00:26:15.374Z,6.41
2019-03-20T00:27:15.364Z,6.40
2019-03-20T00:28:15.369Z,6.40
2019-03-20T00:29:15.343Z,6.39
2019-03-20T00:30:15.331Z,6.39
2019-03-20T00:31:15.321Z,6.38
2019-03-20T00:32:15.321Z,6.37
2019-03-20T00:33:15.301Z,6.36
2019-03-20T00:34:15.305Z,6.36
2019-03-20T00:35:15.282Z,6.35
2019-03-20T00:36:15.268Z,6.35
2019-03-20T00:37:15.258Z,6.34
2019-03-20T00:38:15.249Z,6.32
2019-03-20T00:39:15.255Z,6.32
2019-03-20T00:40:15.238Z,6.31
2019-03-20T00:41:15.216Z,6.28
2019-03-20T00:42:15.205Z,6.28
2019-03-20T00:43:15.195Z,6.27
2019-03-20T00:44:15.185Z,6.25
2019-03-20T00:45:15.174Z,6.23
2019-03-20T00:46:15.173Z,6.21
2019-03-20T00:47:15.153Z,6.20
2019-03-20T00:48:15.140Z,6.20
2019-03-20T00:49:15.132Z,6.19
2019-03-20T00:50:15.122Z,6.19
2019-03-20T00:51:15.109Z,6.18
2019-03-20T00:52:15.108Z,6.18
2019-03-20T00:53:15.088Z,6.19
2019-03-20T00:54:15.076Z,6.17
2019-03-20T00:55:15.065Z,6.16
2019-03-20T00:56:15.054Z,6.16
2019-03-20T00:57:15.044Z,6.14
2019-03-20T00:58:15.044Z,6.15
2019-03-20T00:59:15.023Z,6.16
2019-03-20T01:00:15.013Z,6.17
2019-03-20T01:01:15.000Z,6.18
2019-03-20T01:02:14.989Z,6.19
2019-03-20T01:03:14.977Z,6.20
2019-03-20T01:04:14.992Z,6.18
2019-03-20T01:05:14.955Z,6.19
2019-03-20T01:06:14.945Z,6.20
2019-03-20T01:07:14.935Z,6.20
2019-03-20T01:08:14.924Z,6.19
2019-03-20T01:09:14.913Z,6.19
2019-03-20T01:10:14.914Z,6.18
2019-03-20T01:11:14.892Z,6.18
2019-03-20T01:12:14.882Z,6.18
2019-03-20T01:13:14.872Z,6.17
2019-03-20T01:14:14.860Z,6.17
2019-03-20T01:15:14.848Z,6.17
2019-03-20T01:16:14.848Z,6.16
2019-03-20T01:17:14.826Z,6.15
2019-03-20T01:18:14.816Z,6.14
2019-03-20T01:19:14.805Z,6.13
2019-03-20T01:20:14.794Z,6.13
2019-03-20T01:21:14.788Z,6.12
2019-03-20T01:22:14.785Z,6.11
2019-03-20T01:23:14.762Z,6.11
2019-03-20T01:24:14.751Z,6.11
2019-03-20T01:25:14.740Z,6.10
2019-03-20T01:26:14.729Z,6.12
2019-03-20T01:27:14.722Z,6.11
2019-03-20T01:28:14.720Z,6.11
2019-03-20T01:29:14.698Z,6.11
2019-03-20T01:30:14.686Z,6.11
2019-03-20T01:31:14.675Z,6.12
2019-03-20T01:32:14.668Z,6.12
2019-03-20T01:33:14.659Z,6.10
2019-03-20T01:34:14.660Z,6.11
2019-03-20T01:35:23.449Z,6.10
2019-03-20T01:36:15.622Z,6.09
2019-03-20T01:37:14.611Z,6.09
2019-03-20T01:38:14.603Z,6.08
2019-03-20T01:39:14.589Z,6.07
2019-03-20T01:40:14.591Z,6.08
2019-03-20T01:41:14.567Z,6.06
2019-03-20T01:42:14.557Z,6.06
2019-03-20T01:43:14.548Z,6.06
2019-03-20T01:44:14.536Z,6.05
2019-03-20T01:45:14.563Z,6.03
2019-03-20T01:46:14.555Z,6.04
2019-03-20T01:47:14.502Z,6.01
2019-03-20T01:48:14.497Z,6.00
2019-03-20T01:49:14.480Z,6.00
2019-03-20T01:50:14.479Z,5.97
2019-03-20T01:51:14.460Z,5.95
2019-03-20T01:52:14.495Z,5.93
2019-03-20T01:53:14.438Z,5.92
2019-03-20T01:54:14.426Z,5.92
2019-03-20T01:55:14.416Z,5.90
2019-03-20T01:56:14.404Z,5.89
2019-03-20T01:57:14.396Z,5.87
2019-03-20T01:58:14.394Z,5.86
2019-03-20T01:59:14.375Z,5.85
2019-03-20T02:00:14.362Z,5.82
2019-03-20T02:01:14.351Z,5.81
2019-03-20T02:02:14.340Z,5.77
2019-03-20T02:03:14.329Z,5.77
2019-03-20T02:04:14.331Z,5.76
2019-03-20T02:05:14.320Z,5.72
2019-03-20T02:06:14.296Z,5.71
2019-03-20T02:07:14.286Z,5.70
2019-03-20T02:08:14.276Z,5.69
2019-03-20T02:09:14.269Z,5.68
2019-03-20T02:10:14.265Z,5.66
2019-03-20T02:11:14.242Z,5.65
2019-03-20T02:12:14.232Z,5.65
2019-03-20T02:13:14.222Z,5.62
2019-03-20T02:14:14.213Z,5.60
2019-03-20T02:15:14.199Z,5.61
2019-03-20T02:16:14.199Z,5.58
2019-03-20T02:17:14.179Z,5.57
2019-03-20T02:18:14.170Z,5.55
2019-03-20T02:19:14.156Z,5.55
2019-03-20T02:20:14.146Z,5.54
2019-03-20T02:21:14.137Z,5.53
2019-03-20T02:22:14.136Z,5.52
2019-03-20T02:23:14.113Z,5.50
2019-03-20T02:24:14.102Z,5.50
2019-03-20T02:25:14.093Z,5.47
2019-03-20T02:26:14.081Z,5.48
2019-03-20T02:27:14.070Z,5.48
2019-03-20T02:28:14.070Z,5.47
2019-03-20T02:29:14.048Z,5.46
2019-03-20T02:30:14.045Z,5.45
2019-03-20T02:31:14.028Z,5.46
2019-03-20T02:32:14.016Z,5.46
2019-03-20T02:33:14.005Z,5.43
2019-03-20T02:34:14.009Z,5.42
2019-03-20T02:35:13.984Z,5.40
2019-03-20T02:36:13.974Z,5.40
2019-03-20T02:37:13.968Z,5.39
2019-03-20T02:38:13.952Z,5.37
2019-03-20T02:39:13.941Z,5.35
2019-03-20T02:40:13.950Z,5.34
2019-03-20T02:41:13.919Z,5.33
2019-03-20T02:42:13.908Z,5.33
2019-03-20T02:43:13.898Z,5.32
2019-03-20T02:44:13.888Z,5.30
2019-03-20T02:45:13.880Z,5.30
2019-03-20T02:46:13.879Z,5.29
2019-03-20T02:47:13.862Z,5.29
2019-03-20T02:48:13.845Z,5.28
2019-03-20T02:49:13.838Z,5.27
2019-03-20T02:50:13.826Z,5.27
2019-03-20T02:51:13.812Z,5.25
2019-03-20T02:52:13.819Z,5.24
2019-03-20T02:53:13.801Z,5.23
2019-03-20T02:54:13.785Z,5.21
2019-03-20T02:55:13.773Z,5.20
2019-03-20T02:56:13.758Z,5.20
2019-03-20T02:57:13.748Z,5.20
2019-03-20T02:58:13.752Z,5.16
2019-03-20T02:59:13.726Z,5.16
2019-03-20T03:00:13.723Z,5.13
2019-03-20T03:01:13.712Z,5.12
2019-03-20T03:02:13.695Z,5.11
2019-03-20T03:03:13.686Z,5.09
2019-03-20T03:04:13.684Z,5.08
2019-03-20T03:05:13.667Z,5.07
2019-03-20T03:06:13.654Z,5.06
2019-03-20T03:07:13.643Z,5.04
2019-03-20T03:08:13.636Z,5.04
2019-03-20T03:09:13.622Z,5.03
2019-03-20T03:10:13.623Z,5.00
2019-03-20T03:11:13.606Z,4.99
2019-03-20T03:12:13.591Z,4.99
2019-03-20T03:13:13.582Z,4.98
2019-03-20T03:14:13.570Z,4.96
2019-03-20T03:15:13.563Z,4.95
2019-03-20T03:16:13.561Z,4.94
2019-03-20T03:17:13.539Z,4.91
2019-03-20T03:18:13.529Z,4.90
2019-03-20T03:19:13.518Z,4.88
2019-03-20T03:20:13.512Z,4.87
2019-03-20T03:21:13.498Z,4.86
2019-03-20T03:22:13.498Z,4.84
2019-03-20T03:23:13.479Z,4.83
2019-03-20T03:24:13.469Z,4.82
2019-03-20T03:25:13.459Z,4.82
2019-03-20T03:26:13.445Z,4.81
2019-03-20T03:27:13.435Z,4.80
2019-03-20T03:28:13.445Z,4.80
2019-03-20T03:29:13.416Z,4.78
2019-03-20T03:30:13.404Z,4.77
2019-03-20T03:31:13.396Z,4.77
2019-03-20T03:32:13.387Z,4.76
2019-03-20T03:33:13.373Z,4.75
2019-03-20T03:34:13.391Z,4.74
2019-03-20T03:35:17.162Z,4.73
2019-03-20T03:36:21.342Z,4.71
2019-03-20T03:37:14.330Z,4.71
2019-03-20T03:38:13.320Z,4.71
2019-03-20T03:39:13.309Z,4.70
2019-03-20T03:40:13.309Z,4.70
2019-03-20T03:41:13.293Z,4.69
2019-03-20T03:42:13.289Z,4.67
2019-03-20T03:43:13.274Z,4.67
2019-03-20T03:44:13.258Z,4.67
2019-03-20T03:45:13.251Z,4.66
2019-03-20T03:46:13.250Z,4.68
2019-03-20T03:47:13.225Z,4.69
2019-03-20T03:48:13.213Z,4.67
2019-03-20T03:49:13.204Z,4.68
2019-03-20T03:50:13.194Z,4.67
2019-03-20T03:51:13.182Z,4.67
2019-03-20T03:52:13.181Z,4.67
2019-03-20T03:53:13.162Z,4.67
2019-03-20T03:54:13.151Z,4.65
2019-03-20T03:55:13.138Z,4.65
2019-03-20T03:56:13.133Z,4.64
2019-03-20T03:57:13.119Z,4.64
2019-03-20T03:58:13.117Z,4.64
2019-03-20T03:59:13.111Z,4.63
2019-03-20T04:00:13.096Z,4.63
2019-03-20T04:01:13.080Z,4.64
2019-03-20T04:02:13.065Z,4.64
2019-03-20T04:03:13.058Z,4.64
2019-03-20T04:04:13.054Z,4.64
2019-03-20T04:05:13.031Z,4.67
2019-03-20T04:06:13.022Z,4.64
2019-03-20T04:07:13.009Z,4.66
2019-03-20T04:08:12.999Z,4.67
2019-03-20T04:09:12.994Z,4.68
2019-03-20T04:10:12.987Z,4.68
2019-03-20T04:11:12.966Z,4.69
2019-03-20T04:12:12.963Z,4.71
2019-03-20T04:13:12.948Z,4.70
2019-03-20T04:14:12.935Z,4.71
2019-03-20T04:15:12.924Z,4.70
2019-03-20T04:16:12.924Z,4.69
2019-03-20T04:17:12.901Z,4.71
2019-03-20T04:18:12.892Z,4.70
2019-03-20T04:19:12.881Z,4.70
2019-03-20T04:20:12.876Z,4.72
2019-03-20T04:21:12.873Z,4.71
2019-03-20T04:22:12.872Z,4.71
2019-03-20T04:23:12.838Z,4.71
2019-03-20T04:24:12.829Z,4.70
2019-03-20T04:25:12.819Z,4.71
2019-03-20T04:26:12.807Z,4.71
2019-03-20T04:27:12.800Z,4.72
2019-03-20T04:28:12.795Z,4.72
2019-03-20T04:29:14.109Z,4.72
2019-03-20T04:30:12.843Z,4.72
2019-03-20T04:31:12.757Z,4.75
2019-03-20T04:32:12.744Z,4.74
2019-03-20T04:33:12.734Z,4.75
2019-03-20T04:34:12.739Z,4.75
2019-03-20T04:35:12.718Z,4.76
2019-03-20T04:36:12.702Z,4.76
2019-03-20T04:37:12.693Z,4.76
2019-03-20T04:38:12.682Z,4.77
2019-03-20T04:39:12.670Z,4.78
2019-03-20T04:40:12.673Z,4.77
2019-03-20T04:41:12.651Z,4.76
2019-03-20T04:42:12.639Z,4.78
2019-03-20T04:43:12.629Z,4.79
2019-03-20T04:44:12.617Z,4.81
2019-03-20T04:45:12.864Z,4.83
2019-03-20T04:46:12.607Z,4.87
2019-03-20T04:47:12.586Z,4.90
2019-03-20T04:48:12.579Z,4.94
2019-03-20T04:49:12.569Z,5.00
2019-03-20T04:50:12.555Z,5.05
2019-03-20T04:51:12.546Z,5.07
2019-03-20T04:52:12.552Z,5.11
2019-03-20T04:53:12.524Z,5.14
2019-03-20T04:54:12.514Z,5.16
2019-03-20T04:55:12.503Z,5.18
2019-03-20T04:56:12.492Z,5.19
2019-03-20T04:57:12.482Z,5.18
2019-03-20T04:58:12.488Z,5.19
2019-03-20T04:59:12.461Z,5.20
2019-03-20T05:00:12.450Z,5.19
2019-03-20T05:01:12.440Z,5.19
2019-03-20T05:02:12.430Z,5.19
2019-03-20T05:03:12.419Z,5.19
2019-03-20T05:04:12.421Z,5.19
2019-03-20T05:05:12.398Z,5.19
2019-03-20T05:06:12.397Z,5.20
2019-03-20T05:07:12.384Z,5.20
2019-03-20T05:08:12.372Z,5.19
2019-03-20T05:09:12.357Z,5.20
2019-03-20T05:10:12.358Z,5.19
2019-03-20T05:11:12.337Z,5.20
2019-03-20T05:12:12.326Z,5.21
2019-03-20T05:13:12.315Z,5.22
2019-03-20T05:14:12.559Z,5.22
2019-03-20T05:15:12.295Z,5.24
2019-03-20T05:16:12.297Z,5.24
2019-03-20T05:17:12.273Z,5.26
2019-03-20T05:18:12.264Z,5.25
2019-03-20T05:19:12.254Z,5.27
2019-03-20T05:20:12.244Z,5.25
2019-03-20T05:21:12.232Z,5.27
2019-03-20T05:22:12.239Z,5.27
2019-03-20T05:23:12.211Z,5.28
2019-03-20T05:24:12.201Z,5.29
2019-03-20T05:25:12.191Z,5.29
2019-03-20T05:26:12.179Z,5.31
2019-03-20T05:27:12.171Z,5.32
2019-03-20T05:28:12.170Z,5.33
2019-03-20T05:29:12.148Z,5.32
2019-03-20T05:30:12.152Z,5.32
2019-03-20T05:31:12.129Z,5.33
2019-03-20T05:32:12.117Z,5.34
2019-03-20T05:33:12.105Z,5.35
2019-03-20T05:34:12.105Z,5.36
2019-03-20T05:35:12.086Z,5.36
2019-03-20T05:36:12.074Z,5.39
2019-03-20T05:37:12.070Z,5.40
2019-03-20T05:38:12.053Z,5.43
2019-03-20T05:39:12.043Z,5.45
2019-03-20T05:40:12.045Z,5.48
2019-03-20T05:41:12.021Z,5.51
2019-03-20T05:42:12.010Z,5.54
2019-03-20T05:43:12.000Z,5.58
2019-03-20T05:44:11.990Z,5.62
2019-03-20T05:45:11.979Z,5.66
2019-03-20T05:46:11.983Z,5.71
2019-03-20T05:47:11.958Z,5.74
2019-03-20T05:48:11.946Z,5.78
2019-03-20T05:49:11.936Z,5.81
2019-03-20T05:50:11.925Z,5.84
2019-03-20T05:51:11.913Z,5.86
2019-03-20T05:52:11.921Z,5.88
2019-03-20T05:53:11.893Z,5.91
2019-03-20T05:54:11.894Z,5.95
2019-03-20T05:55:11.874Z,5.99
2019-03-20T05:56:11.861Z,6.07
2019-03-20T05:57:12.717Z,6.14
2019-03-20T05:58:11.850Z,6.21
2019-03-20T05:59:11.830Z,6.31
2019-03-20T06:00:11.817Z,6.42
2019-03-20T06:01:11.810Z,6.50
2019-03-20T06:02:11.799Z,6.60
2019-03-20T06:03:11.784Z,6.71
2019-03-20T06:04:11.783Z,6.80
2019-03-20T06:05:11.762Z,6.89
2019-03-20T06:06:11.753Z,6.99
2019-03-20T06:07:21.165Z,7.05
2019-03-20T06:08:12.730Z,7.10
2019-03-20T06:09:11.721Z,7.14
2019-03-20T06:10:11.721Z,7.18
2019-03-20T06:11:11.699Z,7.26
2019-03-20T06:12:11.688Z,7.33
2019-03-20T06:13:11.678Z,7.37
2019-03-20T06:14:11.667Z,7.46
2019-03-20T06:15:11.661Z,7.57
2019-03-20T06:16:11.658Z,7.64
2019-03-20T06:17:11.636Z,7.67
2019-03-20T06:18:11.628Z,7.72
2019-03-20T06:19:11.616Z,7.75
2019-03-20T06:20:11.605Z,7.80
2019-03-20T06:21:11.595Z,7.83
2019-03-20T06:22:11.594Z,7.88
2019-03-20T06:23:11.576Z,7.92
2019-03-20T06:24:11.564Z,7.96
2019-03-20T06:25:11.552Z,8.00
2019-03-20T06:26:11.543Z,8.03
2019-03-20T06:27:11.529Z,8.05
2019-03-20T06:28:11.531Z,8.08
2019-03-20T06:29:11.508Z,8.11
2019-03-20T06:30:11.502Z,8.14
2019-03-20T06:31:11.485Z,8.17
2019-03-20T06:32:11.478Z,8.19
2019-03-20T06:33:11.465Z,8.23
2019-03-20T06:34:11.469Z,8.30
2019-03-20T06:35:11.445Z,8.36
2019-03-20T06:36:11.430Z,8.44
2019-03-20T06:37:11.419Z,8.51
2019-03-20T06:38:11.409Z,8.60
2019-03-20T06:39:11.398Z,8.70
2019-03-20T06:40:11.405Z,8.77
2019-03-20T06:41:11.377Z,8.85
2019-03-20T06:42:11.365Z,8.91
2019-03-20T06:43:11.356Z,9.02
2019-03-20T06:44:11.344Z,9.05
2019-03-20T06:45:11.334Z,9.07
2019-03-20T06:46:11.335Z,9.41
2019-03-20T06:47:11.311Z,10.38
2019-03-20T06:48:11.301Z,11.14
2019-03-20T06:49:11.292Z,11.68
2019-03-20T06:50:11.280Z,12.26
2019-03-20T06:51:11.269Z,12.71
2019-03-20T06:52:11.277Z,13.07
2019-03-20T06:53:11.248Z,13.44
2019-03-20T06:54:11.237Z,13.77
2019-03-20T06:55:11.226Z,14.25
2019-03-20T06:56:11.216Z,14.81
2019-03-20T06:57:11.204Z,15.44
2019-03-20T06:58:11.205Z,15.97
2019-03-20T06:59:11.183Z,16.48
2019-03-20T07:00:11.173Z,16.96
2019-03-20T07:01:11.161Z,17.43
2019-03-20T07:02:11.152Z,17.85
2019-03-20T07:03:11.139Z,18.27
2019-03-20T07:04:11.139Z,18.72
2019-03-20T07:05:11.118Z,19.15
2019-03-20T07:06:11.107Z,19.58
2019-03-20T07:07:11.096Z,19.84
2019-03-20T07:08:11.086Z,19.94
2019-03-20T07:09:11.082Z,20.05
2019-03-20T07:10:11.074Z,20.41
2019-03-20T07:11:11.056Z,20.68
2019-03-20T07:12:11.043Z,21.05
2019-03-20T07:13:11.035Z,21.51
2019-03-20T07:14:11.027Z,21.87
2019-03-20T07:15:11.013Z,21.70
2019-03-20T07:16:11.011Z,21.73
2019-03-20T07:17:10.993Z,21.19
2019-03-20T07:18:10.977Z,20.76
2019-03-20T07:19:10.966Z,20.36
2019-03-20T07:20:10.958Z,20.00
2019-03-20T07:21:10.944Z,19.66
2019-03-20T07:22:10.944Z,19.44
2019-03-20T07:23:10.922Z,19.39
2019-03-20T07:24:10.911Z,19.37
2019-03-20T07:25:10.904Z,19.70
2019-03-20T07:26:10.892Z,19.75
2019-03-20T07:27:10.879Z,19.95
2019-03-20T07:28:10.886Z,20.15
2019-03-20T07:29:10.858Z,20.10
2019-03-20T07:30:10.847Z,20.03
2019-03-20T07:31:15.591Z,19.94
2019-03-20T07:32:11.824Z,19.83
2019-03-20T07:33:10.813Z,19.58
2019-03-20T07:34:10.813Z,19.31
2019-03-20T07:35:10.791Z,19.00
2019-03-20T07:36:10.779Z,18.81
2019-03-20T07:37:10.769Z,18.53
2019-03-20T07:38:10.758Z,18.28
2019-03-20T07:39:10.752Z,18.07
2019-03-20T07:40:10.746Z,17.85
2019-03-20T07:41:10.724Z,17.66
2019-03-20T07:42:10.712Z,17.44
2019-03-20T07:43:10.711Z,17.26
2019-03-20T07:44:10.691Z,17.10
2019-03-20T07:45:10.682Z,16.93
2019-03-20T07:46:10.688Z,16.76
2019-03-20T07:47:10.659Z,16.58
2019-03-20T07:48:21.162Z,16.40
2019-03-20T07:49:11.637Z,16.21
2019-03-20T07:50:10.628Z,16.02
2019-03-20T07:51:10.617Z,15.85
2019-03-20T07:52:10.621Z,15.70
2019-03-20T07:53:10.597Z,15.55
2019-03-20T07:54:10.583Z,15.40
2019-03-20T07:55:10.573Z,15.30
2019-03-20T07:56:10.562Z,15.20
2019-03-20T07:57:10.551Z,15.10
2019-03-20T07:58:10.560Z,15.02
2019-03-20T07:59:10.531Z,14.96
2019-03-20T08:00:10.520Z,14.92
2019-03-20T08:01:10.507Z,14.89
2019-03-20T08:02:10.497Z,14.87
2019-03-20T08:03:10.486Z,14.88
2019-03-20T08:04:10.487Z,14.85
2019-03-20T08:05:10.463Z,14.86
2019-03-20T08:06:10.452Z,14.89
2019-03-20T08:07:10.441Z,14.92
2019-03-20T08:08:10.430Z,14.93
2019-03-20T08:09:10.422Z,14.95
2019-03-20T08:10:10.420Z,14.99
2019-03-20T08:11:10.399Z,15.03
2019-03-20T08:12:10.386Z,15.06
2019-03-20T08:13:10.376Z,15.08
2019-03-20T08:14:10.365Z,15.10
2019-03-20T08:15:10.363Z,15.11
2019-03-20T08:16:10.354Z,15.09
2019-03-20T08:17:10.334Z,15.06
2019-03-20T08:18:10.329Z,15.06
2019-03-20T08:19:10.311Z,15.04
2019-03-20T08:20:10.303Z,15.02
2019-03-20T08:21:10.289Z,14.99
2019-03-20T08:22:10.294Z,14.95
2019-03-20T08:23:10.268Z,14.91
2019-03-20T08:24:10.260Z,14.87
2019-03-20T08:25:10.246Z,14.84
2019-03-20T08:26:10.237Z,14.81
2019-03-20T08:27:10.225Z,14.80
2019-03-20T08:28:10.233Z,14.79
2019-03-20T08:29:10.203Z,14.76
2019-03-20T08:30:10.195Z,14.75
2019-03-20T08:31:10.182Z,14.73
2019-03-20T08:32:10.171Z,14.72
2019-03-20T08:33:10.160Z,14.71
2019-03-20T08:34:10.170Z,14.72
2019-03-20T08:35:10.139Z,14.73
2019-03-20T08:36:10.129Z,14.74
2019-03-20T08:37:10.117Z,14.77
2019-03-20T08:38:18.155Z,14.79
2019-03-20T08:39:11.106Z,14.81
2019-03-20T08:40:10.085Z,14.80
2019-03-20T08:41:10.074Z,14.80
2019-03-20T08:42:10.064Z,14.77
2019-03-20T08:43:10.054Z,14.73
2019-03-20T08:44:10.045Z,14.69
2019-03-20T08:45:10.043Z,14.68
2019-03-20T08:46:10.021Z,14.66
2019-03-20T08:47:10.010Z,14.65
2019-03-20T08:48:10.000Z,14.64
2019-03-20T08:49:09.990Z,14.68
2019-03-20T08:50:09.977Z,14.72
2019-03-20T08:51:09.979Z,14.74
2019-03-20T08:52:09.956Z,14.81
2019-03-20T08:53:09.945Z,14.85
2019-03-20T08:54:09.936Z,14.91
2019-03-20T08:55:09.924Z,14.97
2019-03-20T08:56:09.914Z,15.03
2019-03-20T08:57:09.915Z,15.10
2019-03-20T08:58:09.893Z,15.22
2019-03-20T08:59:09.881Z,15.29
2019-03-20T09:00:09.874Z,15.40
2019-03-20T09:01:09.863Z,15.50
2019-03-20T09:02:09.849Z,15.55
2019-03-20T09:03:09.857Z,15.61
2019-03-20T09:04:09.828Z,15.65
2019-03-20T09:05:09.821Z,15.70
2019-03-20T09:06:09.822Z,15.73
2019-03-20T09:07:09.797Z,15.76
2019-03-20T09:08:09.807Z,15.79
2019-03-20T09:09:09.797Z,15.83
2019-03-20T09:10:09.763Z,15.89
2019-03-20T09:11:09.757Z,15.93
2019-03-20T09:12:09.741Z,16.00
2019-03-20T09:13:09.730Z,16.07
2019-03-20T09:14:09.719Z,16.15
2019-03-20T09:15:09.721Z,16.23
2019-03-20T09:16:09.696Z,16.31
2019-03-20T09:17:09.686Z,16.43
2019-03-20T09:18:09.675Z,16.54
2019-03-20T09:19:09.670Z,16.63
2019-03-20T09:20:09.682Z,16.70
2019-03-20T09:21:09.655Z,16.73
2019-03-20T09:22:09.631Z,16.75
2019-03-20T09:23:09.619Z,16.75
2019-03-20T09:24:09.609Z,16.74
2019-03-20T09:25:09.599Z,16.67
2019-03-20T09:26:09.587Z,16.62
2019-03-20T09:27:09.586Z,16.57
2019-03-20T09:28:09.564Z,16.54
2019-03-20T09:29:18.145Z,16.50
2019-03-20T09:30:10.542Z,16.49
2019-03-20T09:31:09.533Z,16.47
2019-03-20T09:32:09.522Z,16.46
2019-03-20T09:33:09.525Z,16.45
2019-03-20T09:34:09.500Z,16.44
2019-03-20T09:35:09.490Z,16.42
2019-03-20T09:36:09.478Z,16.41
2019-03-20T09:37:09.467Z,16.39
2019-03-20T09:38:09.459Z,16.37
2019-03-20T09:39:09.460Z,16.35
2019-03-20T09:40:09.435Z,16.35
2019-03-20T09:41:09.425Z,16.36
2019-03-20T09:42:09.416Z,16.38
2019-03-20T09:43:09.403Z,16.40
2019-03-20T09:44:09.392Z,16.43
2019-03-20T09:45:09.399Z,16.45
2019-03-20T09:46:09.377Z,16.44
2019-03-20T09:47:09.370Z,16.44
2019-03-20T09:48:09.390Z,16.45
2019-03-20T09:49:09.343Z,16.47
2019-03-20T09:50:09.329Z,16.46
2019-03-20T09:51:09.361Z,16.44
2019-03-20T09:52:09.307Z,16.43
2019-03-20T09:53:09.299Z,16.44
2019-03-20T09:54:09.288Z,16.46
2019-03-20T09:55:09.274Z,16.48
2019-03-20T09:56:09.264Z,16.49
2019-03-20T09:57:09.272Z,16.51
2019-03-20T09:58:11.840Z,16.52
2019-03-20T09:59:09.233Z,16.57
2019-03-20T10:00:09.222Z,16.60
2019-03-20T10:01:09.210Z,16.65
2019-03-20T10:02:09.201Z,16.69
2019-03-20T10:03:09.200Z,16.74
2019-03-20T10:04:09.178Z,16.80
2019-03-20T10:05:09.167Z,16.82
2019-03-20T10:06:09.156Z,16.86
2019-03-20T10:07:09.146Z,16.89
2019-03-20T10:08:09.135Z,16.92
2019-03-20T10:09:09.135Z,16.94
2019-03-20T10:10:09.115Z,16.94
2019-03-20T10:11:09.104Z,16.97
2019-03-20T10:12:09.092Z,16.98
2019-03-20T10:13:09.084Z,16.99
2019-03-20T10:14:09.075Z,16.97
2019-03-20T10:15:09.070Z,16.95
2019-03-20T10:16:09.050Z,16.91
2019-03-20T10:17:09.038Z,16.89
2019-03-20T10:18:09.031Z,16.87
2019-03-20T10:19:09.024Z,16.87
2019-03-20T10:20:09.007Z,16.87
2019-03-20T10:21:09.006Z,16.87
2019-03-20T10:22:08.984Z,16.90
2019-03-20T10:23:08.979Z,16.93
2019-03-20T10:24:08.966Z,16.97
2019-03-20T10:25:08.953Z,17.02
2019-03-20T10:26:08.943Z,17.08
2019-03-20T10:27:08.942Z,17.14
2019-03-20T10:28:08.921Z,17.22
2019-03-20T10:29:08.929Z,17.31
2019-03-20T10:30:08.899Z,17.42
2019-03-20T10:31:08.896Z,17.52
2019-03-20T10:32:08.878Z,17.62
2019-03-20T10:33:08.877Z,17.73
2019-03-20T10:34:08.856Z,17.84
2019-03-20T10:35:08.850Z,17.96
2019-03-20T10:36:08.842Z,18.07
2019-03-20T10:37:08.849Z,18.16
2019-03-20T10:38:08.810Z,18.22
2019-03-20T10:39:08.863Z,18.26
2019-03-20T10:40:08.790Z,18.27
2019-03-20T10:41:08.778Z,18.26
2019-03-20T10:42:08.767Z,18.25
2019-03-20T10:43:08.756Z,18.25
2019-03-20T10:44:08.747Z,18.24
2019-03-20T10:45:08.746Z,18.23
2019-03-20T10:46:08.724Z,18.21
2019-03-20T10:47:08.716Z,18.18
2019-03-20T10:48:08.702Z,18.16
2019-03-20T10:49:08.694Z,18.13
2019-03-20T10:50:08.690Z,18.11
2019-03-20T10:51:08.683Z,18.10
2019-03-20T10:52:08.661Z,18.08
2019-03-20T10:53:08.648Z,18.07
2019-03-20T10:54:08.638Z,18.07
2019-03-20T10:55:08.627Z,18.06
2019-03-20T10:56:08.624Z,18.05
2019-03-20T10:57:08.619Z,18.07
2019-03-20T10:58:08.596Z,18.08
2019-03-20T10:59:08.584Z,18.11
2019-03-20T11:00:08.577Z,18.16
2019-03-20T11:01:08.562Z,18.27
2019-03-20T11:02:08.551Z,18.38
2019-03-20T11:03:08.552Z,18.52
2019-03-20T11:04:08.547Z,18.62
2019-03-20T11:05:08.530Z,18.70
2019-03-20T11:06:08.514Z,18.78
2019-03-20T11:07:08.499Z,18.82
2019-03-20T11:08:08.493Z,18.84
2019-03-20T11:09:17.731Z,18.83
2019-03-20T11:10:09.469Z,18.83
2019-03-20T11:11:08.475Z,18.82
2019-03-20T11:12:08.443Z,18.80
2019-03-20T11:13:08.437Z,18.78
2019-03-20T11:14:08.445Z,18.79
2019-03-20T11:15:08.425Z,18.78
2019-03-20T11:16:08.402Z,18.81
2019-03-20T11:17:08.394Z,18.83
2019-03-20T11:18:08.386Z,18.86
2019-03-20T11:19:08.373Z,18.91
2019-03-20T11:20:08.359Z,18.96
2019-03-20T11:21:08.383Z,19.01
2019-03-20T11:22:18.236Z,19.03
2019-03-20T11:23:09.324Z,19.04
2019-03-20T11:24:08.318Z,19.04
2019-03-20T11:25:08.305Z,19.02
2019-03-20T11:26:08.294Z,19.02
2019-03-20T11:27:08.294Z,18.99
2019-03-20T11:28:08.272Z,18.96
2019-03-20T11:29:08.264Z,18.92
2019-03-20T11:30:08.250Z,18.88
2019-03-20T11:31:08.240Z,18.83
2019-03-20T11:32:08.230Z,18.75
2019-03-20T11:33:08.232Z,18.67
2019-03-20T11:34:08.208Z,18.61
2019-03-20T11:35:08.197Z,18.56
2019-03-20T11:36:08.186Z,18.48
2019-03-20T11:37:08.176Z,18.39
2019-03-20T11:38:08.165Z,18.32
2019-03-20T11:39:08.172Z,18.24
2019-03-20T11:40:08.147Z,18.16
2019-03-20T11:41:08.132Z,18.07
2019-03-20T11:42:08.122Z,18.01
2019-03-20T11:43:08.113Z,17.95
2019-03-20T11:44:08.099Z,17.94
2019-03-20T11:45:08.100Z,17.91
2019-03-20T11:46:08.113Z,17.88
2019-03-20T11:47:08.067Z,17.86
2019-03-20T11:48:08.061Z,17.85
2019-03-20T11:49:08.051Z,17.83
2019-03-20T11:50:08.037Z,17.83
2019-03-20T11:51:08.045Z,17.85
2019-03-20T11:52:08.020Z,17.87
2019-03-20T11:53:08.005Z,17.94
2019-03-20T11:54:07.994Z,17.99
2019-03-20T11:55:07.983Z,18.06
2019-03-20T11:56:07.972Z,18.12
2019-03-20T11:57:07.972Z,18.17
2019-03-20T11:58:07.956Z,18.18
2019-03-20T11:59:07.940Z,18.15
2019-03-20T12:00:07.930Z,18.09
2019-03-20T12:01:07.920Z,18.02
2019-03-20T12:02:07.908Z,17.95
2019-03-20T12:03:07.959Z,17.90
2019-03-20T12:04:07.887Z,17.88
2019-03-20T12:05:07.877Z,17.86
2019-03-20T12:06:07.866Z,17.89
2019-03-20T12:07:07.855Z,17.93
2019-03-20T12:08:07.844Z,17.95
2019-03-20T12:09:07.844Z,18.00
2019-03-20T12:10:07.824Z,18.08
2019-03-20T12:11:07.813Z,18.15
2019-03-20T12:12:07.802Z,18.18
2019-03-20T12:13:07.800Z,18.22
2019-03-20T12:14:07.781Z,18.22
2019-03-20T12:15:07.781Z,18.21
2019-03-20T12:16:07.763Z,18.19
2019-03-20T12:17:07.749Z,18.16
2019-03-20T12:18:07.738Z,18.15
2019-03-20T12:19:07.728Z,18.09
2019-03-20T12:20:07.718Z,18.04
2019-03-20T12:21:07.717Z,17.96
2019-03-20T12:22:07.695Z,17.91
2019-03-20T12:23:07.684Z,17.82
2019-03-20T12:24:07.675Z,17.76
2019-03-20T12:25:07.667Z,17.69
2019-03-20T12:26:07.654Z,17.65
2019-03-20T12:27:14.950Z,17.61
2019-03-20T12:28:08.629Z,17.56
2019-03-20T12:29:07.620Z,17.52
2019-03-20T12:30:07.609Z,17.47
2019-03-20T12:31:07.604Z,17.42
2019-03-20T12:32:07.587Z,17.39
2019-03-20T12:33:07.587Z,17.34
2019-03-20T12:34:07.566Z,17.31
2019-03-20T12:35:07.554Z,17.27
2019-03-20T12:36:07.545Z,17.24
2019-03-20T12:37:07.536Z,17.20
2019-03-20T12:38:14.273Z,17.18
2019-03-20T12:39:08.525Z,17.15
2019-03-20T12:40:07.500Z,17.10
2019-03-20T12:41:07.491Z,17.05
2019-03-20T12:42:07.480Z,17.04
2019-03-20T12:43:07.467Z,17.03
2019-03-20T12:44:07.457Z,17.05
2019-03-20T12:45:07.462Z,17.05
2019-03-20T12:46:07.435Z,17.04
2019-03-20T12:47:07.425Z,17.04
2019-03-20T12:48:07.522Z,17.05
2019-03-20T12:49:07.402Z,17.08
2019-03-20T12:50:07.392Z,17.09
2019-03-20T12:51:07.393Z,17.11
2019-03-20T12:52:07.370Z,17.11
2019-03-20T12:53:07.362Z,17.12
2019-03-20T12:54:07.349Z,17.11
2019-03-20T12:55:07.337Z,17.07
2019-03-20T12:56:07.328Z,17.04
2019-03-20T12:57:07.327Z,17.01
2019-03-20T12:58:07.352Z,16.97
2019-03-20T12:59:07.294Z,16.92
2019-03-20T13:00:07.369Z,16.88
2019-03-20T13:01:07.274Z,16.86
2019-03-20T13:02:08.222Z,16.82
2019-03-20T13:03:07.265Z,16.79
2019-03-20T13:04:07.248Z,16.78
2019-03-20T13:05:07.229Z,16.75